Kieffer E Bailey — WDH4584 — position and weather

sailwx.info

Track history (hours):
 
Tides and Currents Weather Stations Pressure Air Temp Water Temp Dewpoint Dewpoint Depression Visibility Wind Speed Wind Dir Waves Ship Positions

Kieffer E Bailey

Owner: Marquette Transportation Company Gulf-Inland, LLC, Jefferson, LA. More information available from US FCC via Universal Licensing System and Coast Guard Vessel Documentation Center.

Last reported at 2017-Sep-24 04:30 UTC. Time now 2017-Sep-24 04:58 UTC.
Position N 30°06' W 093°19'.

Length 25 m; draft 2.6 m.

Type: Towing. MMSI: 367619240.

Date/timePositionNaut miles runAvg speedWind from/ knotsBaromVisibWave heightAir tempDewpointWater temp
2017-Sep-24 04:30N 30°06' W 093°19'1 2.4
2017-Sep-24 04:00N 30°05' W 093°20'2 4.5
2017-Sep-24 03:30N 30°04' W 093°22'0 0.1
2017-Sep-24 03:00N 30°04' W 093°22'0 0.0
2017-Sep-24 02:30N 30°04' W 093°22'0 0.2
2017-Sep-24 02:01N 30°04' W 093°22'0 0.1
2017-Sep-24 01:30N 30°04' W 093°22'0 0.1
2017-Sep-24 01:00N 30°04' W 093°22'0 0.0
2017-Sep-24 00:30N 30°04' W 093°22'0 0.0
2017-Sep-24 00:00N 30°04' W 093°22'0 0.6
2017-Sep-23 23:30N 30°04' W 093°22'0 0.3
2017-Sep-23 23:00N 30°04' W 093°22'1 1.2
2017-Sep-23 22:30N 30°04' W 093°22'0 0.1
2017-Sep-23 22:00N 30°04' W 093°22'0 0.1
2017-Sep-23 21:30N 30°04' W 093°22'0 0.1
2017-Sep-23 21:00N 30°04' W 093°22'0 0.2
2017-Sep-23 20:30N 30°04' W 093°22'0 0.0
2017-Sep-23 20:00N 30°04' W 093°22'  
2017-Sep-19 07:44N 31°44' W 091°23'15 6.1
2017-Sep-19 05:11N 31°56' W 091°12'1 5.5
2017-Sep-19 04:58N 31°57' W 091°11'3 5.9
2017-Sep-19 04:30N 31°59' W 091°09'3 6.5
2017-Sep-19 04:00N 31°60' W 091°05'3 6.9
2017-Sep-19 03:30N 32°03' W 091°03'3 6.4
2017-Sep-19 03:00N 32°06' W 091°05'2 4.9
2017-Sep-19 02:30N 32°08' W 091°05'3 6.4
2017-Sep-19 02:00N 32°07' W 091°02'3 6.6
2017-Sep-19 01:30N 32°10' W 091°00'3 6.3
2017-Sep-19 01:00N 32°13' W 090°59'4 7.4
2017-Sep-19 00:30N 32°16' W 090°57'4 7.4
2017-Sep-19 00:00N 32°19' W 090°54'3 5.4
2017-Sep-18 23:30N 32°21' W 090°57'3 6.5
2017-Sep-18 23:00N 32°22' W 091°00'3 7.0
2017-Sep-18 22:30N 32°25' W 091°01'4 8.0
2017-Sep-18 22:00N 32°27' W 091°05'4 7.1
2017-Sep-18 21:30N 32°30' W 091°07'4 7.6
2017-Sep-18 21:00N 32°34' W 091°06'5 7.6
2017-Sep-18 20:24N 32°38' W 091°09'  
Track history (hours):
 
Tides and Currents Weather Stations Pressure Air Temp Water Temp Dewpoint Dewpoint Depression Visibility Wind Speed Wind Dir Waves Ship Positions

Kieffer E Bailey

Owner: Marquette Transportation Company Gulf-Inland, LLC, Jefferson, LA. More information available from US FCC via Universal Licensing System and Coast Guard Vessel Documentation Center.

Last reported at 2017-Sep-24 04:30 UTC. Time now 2017-Sep-24 04:58 UTC.
Position N 30°06' W 093°19'.

Length 25 m; draft 2.6 m.

Type: Towing. MMSI: 367619240.

Date/timePositionNaut miles runAvg speedWind from/ knotsBaromVisibWave heightAir tempDewpointWater temp
2017-Sep-24 04:30N 30°06' W 093°19'1 2.4
2017-Sep-24 04:00N 30°05' W 093°20'2 4.5
2017-Sep-24 03:30N 30°04' W 093°22'0 0.1
2017-Sep-24 03:00N 30°04' W 093°22'0 0.0
2017-Sep-24 02:30N 30°04' W 093°22'0 0.2
2017-Sep-24 02:01N 30°04' W 093°22'0 0.1
2017-Sep-24 01:30N 30°04' W 093°22'0 0.1
2017-Sep-24 01:00N 30°04' W 093°22'0 0.0
2017-Sep-24 00:30N 30°04' W 093°22'0 0.0
2017-Sep-24 00:00N 30°04' W 093°22'0 0.6
2017-Sep-23 23:30N 30°04' W 093°22'0 0.3
2017-Sep-23 23:00N 30°04' W 093°22'1 1.2
2017-Sep-23 22:30N 30°04' W 093°22'0 0.1
2017-Sep-23 22:00N 30°04' W 093°22'0 0.1
2017-Sep-23 21:30N 30°04' W 093°22'0 0.1
2017-Sep-23 21:00N 30°04' W 093°22'0 0.2
2017-Sep-23 20:30N 30°04' W 093°22'0 0.0
2017-Sep-23 20:00N 30°04' W 093°22'  
2017-Sep-19 07:44N 31°44' W 091°23'15 6.1
2017-Sep-19 05:11N 31°56' W 091°12'1 5.5
2017-Sep-19 04:58N 31°57' W 091°11'3 5.9
2017-Sep-19 04:30N 31°59' W 091°09'3 6.5
2017-Sep-19 04:00N 31°60' W 091°05'3 6.9
2017-Sep-19 03:30N 32°03' W 091°03'3 6.4
2017-Sep-19 03:00N 32°06' W 091°05'2 4.9
2017-Sep-19 02:30N 32°08' W 091°05'3 6.4
2017-Sep-19 02:00N 32°07' W 091°02'3 6.6
2017-Sep-19 01:30N 32°10' W 091°00'3 6.3
2017-Sep-19 01:00N 32°13' W 090°59'4 7.4
2017-Sep-19 00:30N 32°16' W 090°57'4 7.4
2017-Sep-19 00:00N 32°19' W 090°54'3 5.4
2017-Sep-18 23:30N 32°21' W 090°57'3 6.5
2017-Sep-18 23:00N 32°22' W 091°00'3 7.0
2017-Sep-18 22:30N 32°25' W 091°01'4 8.0
2017-Sep-18 22:00N 32°27' W 091°05'4 7.1
2017-Sep-18 21:30N 32°30' W 091°07'4 7.6
2017-Sep-18 21:00N 32°34' W 091°06'5 7.6
2017-Sep-18 20:24N 32°38' W 091°09'  

Dump ship's entire track history